sensor_id;sensor_type;location;lat;lon;timestamp;P1;durP1;ratioP1;P2;durP2;ratioP2
6259;SDS011;3163;51.516;4.000;2023-04-28T00:01:59;4.03;;;2.40;;
6259;SDS011;3163;51.516;4.000;2023-04-28T00:04:25;4.53;;;3.83;;
6259;SDS011;3163;51.516;4.000;2023-04-28T00:06:51;6.90;;;4.43;;
6259;SDS011;3163;51.516;4.000;2023-04-28T00:09:16;3.87;;;2.67;;
6259;SDS011;3163;51.516;4.000;2023-04-28T00:11:44;4.17;;;3.10;;
6259;SDS011;3163;51.516;4.000;2023-04-28T00:14:10;5.17;;;3.40;;
6259;SDS011;3163;51.516;4.000;2023-04-28T00:16:36;4.00;;;2.87;;
6259;SDS011;3163;51.516;4.000;2023-04-28T00:19:02;3.93;;;2.80;;
6259;SDS011;3163;51.516;4.000;2023-04-28T00:21:28;3.63;;;2.93;;
6259;SDS011;3163;51.516;4.000;2023-04-28T00:23:53;5.30;;;4.07;;
6259;SDS011;3163;51.516;4.000;2023-04-28T00:26:19;3.90;;;2.77;;
6259;SDS011;3163;51.516;4.000;2023-04-28T00:28:44;4.40;;;3.60;;
6259;SDS011;3163;51.516;4.000;2023-04-28T00:31:11;3.40;;;3.10;;
6259;SDS011;3163;51.516;4.000;2023-04-28T00:33:40;3.10;;;2.80;;
6259;SDS011;3163;51.516;4.000;2023-04-28T00:36:06;2.17;;;1.97;;
6259;SDS011;3163;51.516;4.000;2023-04-28T00:38:33;3.73;;;2.80;;
6259;SDS011;3163;51.516;4.000;2023-04-28T00:40:58;7.50;;;4.07;;
6259;SDS011;3163;51.516;4.000;2023-04-28T00:43:24;5.47;;;3.47;;
6259;SDS011;3163;51.516;4.000;2023-04-28T00:45:50;6.97;;;4.53;;
6259;SDS011;3163;51.516;4.000;2023-04-28T00:48:16;3.87;;;2.80;;
6259;SDS011;3163;51.516;4.000;2023-04-28T00:50:43;9.50;;;4.50;;
6259;SDS011;3163;51.516;4.000;2023-04-28T00:53:09;3.87;;;3.23;;
6259;SDS011;3163;51.516;4.000;2023-04-28T00:55:35;7.57;;;5.73;;
6259;SDS011;3163;51.516;4.000;2023-04-28T00:58:02;6.87;;;5.23;;
6259;SDS011;3163;51.516;4.000;2023-04-28T01:00:28;2.37;;;2.03;;
6259;SDS011;3163;51.516;4.000;2023-04-28T01:02:54;2.70;;;2.47;;
6259;SDS011;3163;51.516;4.000;2023-04-28T01:05:21;3.50;;;1.90;;
6259;SDS011;3163;51.516;4.000;2023-04-28T01:07:49;4.93;;;3.13;;
6259;SDS011;3163;51.516;4.000;2023-04-28T01:10:15;9.43;;;5.70;;
6259;SDS011;3163;51.516;4.000;2023-04-28T01:12:41;4.67;;;3.47;;
6259;SDS011;3163;51.516;4.000;2023-04-28T01:15:07;4.77;;;3.73;;
6259;SDS011;3163;51.516;4.000;2023-04-28T01:17:40;7.73;;;3.53;;
6259;SDS011;3163;51.516;4.000;2023-04-28T01:20:06;3.60;;;2.97;;
6259;SDS011;3163;51.516;4.000;2023-04-28T01:22:32;7.63;;;4.50;;
6259;SDS011;3163;51.516;4.000;2023-04-28T01:24:58;7.57;;;4.73;;
6259;SDS011;3163;51.516;4.000;2023-04-28T01:27:24;6.17;;;2.70;;
6259;SDS011;3163;51.516;4.000;2023-04-28T01:29:50;2.03;;;1.87;;
6259;SDS011;3163;51.516;4.000;2023-04-28T01:32:15;5.07;;;2.87;;
6259;SDS011;3163;51.516;4.000;2023-04-28T01:34:41;2.90;;;2.17;;
6259;SDS011;3163;51.516;4.000;2023-04-28T01:37:07;3.53;;;3.20;;
6259;SDS011;3163;51.516;4.000;2023-04-28T01:39:32;2.23;;;2.07;;
6259;SDS011;3163;51.516;4.000;2023-04-28T01:41:59;4.23;;;2.60;;
6259;SDS011;3163;51.516;4.000;2023-04-28T01:44:24;1.50;;;1.40;;
6259;SDS011;3163;51.516;4.000;2023-04-28T01:46:50;4.13;;;2.90;;
6259;SDS011;3163;51.516;4.000;2023-04-28T01:49:16;5.10;;;2.43;;
6259;SDS011;3163;51.516;4.000;2023-04-28T01:51:41;5.17;;;2.77;;
6259;SDS011;3163;51.516;4.000;2023-04-28T01:54:07;3.30;;;2.90;;
6259;SDS011;3163;51.516;4.000;2023-04-28T01:56:32;5.00;;;3.70;;
6259;SDS011;3163;51.516;4.000;2023-04-28T01:58:58;3.83;;;2.53;;
6259;SDS011;3163;51.516;4.000;2023-04-28T02:01:23;8.75;;;5.50;;
6259;SDS011;3163;51.516;4.000;2023-04-28T02:03:49;11.00;;;6.07;;
6259;SDS011;3163;51.516;4.000;2023-04-28T02:06:15;6.70;;;5.17;;
6259;SDS011;3163;51.516;4.000;2023-04-28T02:08:40;4.00;;;3.43;;
6259;SDS011;3163;51.516;4.000;2023-04-28T02:11:06;7.77;;;5.83;;
6259;SDS011;3163;51.516;4.000;2023-04-28T02:13:32;7.67;;;4.30;;
6259;SDS011;3163;51.516;4.000;2023-04-28T02:16:00;2.97;;;2.67;;
6259;SDS011;3163;51.516;4.000;2023-04-28T02:18:26;9.43;;;6.20;;
6259;SDS011;3163;51.516;4.000;2023-04-28T02:20:52;8.00;;;4.27;;
6259;SDS011;3163;51.516;4.000;2023-04-28T02:23:17;5.30;;;4.20;;
6259;SDS011;3163;51.516;4.000;2023-04-28T02:25:43;3.03;;;2.70;;
6259;SDS011;3163;51.516;4.000;2023-04-28T02:28:08;7.17;;;3.67;;
6259;SDS011;3163;51.516;4.000;2023-04-28T02:30:34;5.80;;;4.50;;
6259;SDS011;3163;51.516;4.000;2023-04-28T02:32:59;5.70;;;3.60;;
6259;SDS011;3163;51.516;4.000;2023-04-28T02:35:25;7.20;;;2.87;;
6259;SDS011;3163;51.516;4.000;2023-04-28T02:37:51;5.07;;;3.50;;
6259;SDS011;3163;51.516;4.000;2023-04-28T02:40:17;6.03;;;4.70;;
6259;SDS011;3163;51.516;4.000;2023-04-28T02:42:43;8.33;;;4.17;;
6259;SDS011;3163;51.516;4.000;2023-04-28T02:45:08;3.97;;;2.90;;
6259;SDS011;3163;51.516;4.000;2023-04-28T02:47:34;8.97;;;6.10;;
6259;SDS011;3163;51.516;4.000;2023-04-28T02:50:00;7.80;;;5.27;;
6259;SDS011;3163;51.516;4.000;2023-04-28T02:52:26;2.90;;;2.60;;
6259;SDS011;3163;51.516;4.000;2023-04-28T02:54:52;8.30;;;5.77;;
6259;SDS011;3163;51.516;4.000;2023-04-28T02:57:21;1.90;;;1.80;;
6259;SDS011;3163;51.516;4.000;2023-04-28T02:59:46;2.70;;;2.33;;
6259;SDS011;3163;51.516;4.000;2023-04-28T03:02:12;8.30;;;5.07;;
6259;SDS011;3163;51.516;4.000;2023-04-28T03:04:37;9.20;;;7.00;;
6259;SDS011;3163;51.516;4.000;2023-04-28T03:07:03;4.40;;;3.23;;
6259;SDS011;3163;51.516;4.000;2023-04-28T03:09:29;8.53;;;5.20;;
6259;SDS011;3163;51.516;4.000;2023-04-28T03:11:55;3.33;;;2.93;;
6259;SDS011;3163;51.516;4.000;2023-04-28T03:14:20;6.03;;;4.97;;
6259;SDS011;3163;51.516;4.000;2023-04-28T03:16:46;6.17;;;3.87;;
6259;SDS011;3163;51.516;4.000;2023-04-28T03:19:11;5.10;;;2.53;;
6259;SDS011;3163;51.516;4.000;2023-04-28T03:21:37;4.57;;;3.37;;
6259;SDS011;3163;51.516;4.000;2023-04-28T03:24:03;4.80;;;4.13;;
6259;SDS011;3163;51.516;4.000;2023-04-28T03:26:28;5.00;;;3.93;;
6259;SDS011;3163;51.516;4.000;2023-04-28T03:28:54;7.40;;;5.13;;
6259;SDS011;3163;51.516;4.000;2023-04-28T03:31:20;8.73;;;4.83;;
6259;SDS011;3163;51.516;4.000;2023-04-28T03:33:46;6.10;;;4.40;;
6259;SDS011;3163;51.516;4.000;2023-04-28T03:36:12;7.13;;;4.13;;
6259;SDS011;3163;51.516;4.000;2023-04-28T03:38:37;8.53;;;4.27;;
6259;SDS011;3163;51.516;4.000;2023-04-28T03:41:03;10.07;;;6.40;;
6259;SDS011;3163;51.516;4.000;2023-04-28T03:43:29;7.13;;;5.47;;
6259;SDS011;3163;51.516;4.000;2023-04-28T03:45:54;6.77;;;4.37;;
6259;SDS011;3163;51.516;4.000;2023-04-28T03:48:20;6.90;;;4.80;;
6259;SDS011;3163;51.516;4.000;2023-04-28T03:50:45;7.43;;;4.77;;
6259;SDS011;3163;51.516;4.000;2023-04-28T03:53:11;8.17;;;4.43;;
6259;SDS011;3163;51.516;4.000;2023-04-28T03:55:37;5.07;;;3.70;;
6259;SDS011;3163;51.516;4.000;2023-04-28T03:58:02;8.20;;;5.87;;
6259;SDS011;3163;51.516;4.000;2023-04-28T04:00:28;5.80;;;3.27;;
6259;SDS011;3163;51.516;4.000;2023-04-28T04:02:54;10.10;;;7.37;;
6259;SDS011;3163;51.516;4.000;2023-04-28T04:05:19;9.80;;;5.77;;
6259;SDS011;3163;51.516;4.000;2023-04-28T04:07:45;11.88;;;6.38;;
6259;SDS011;3163;51.516;4.000;2023-04-28T04:10:10;2.93;;;1.90;;
6259;SDS011;3163;51.516;4.000;2023-04-28T04:12:36;9.37;;;5.77;;
6259;SDS011;3163;51.516;4.000;2023-04-28T04:15:02;5.70;;;4.30;;
6259;SDS011;3163;51.516;4.000;2023-04-28T04:17:27;2.60;;;1.93;;
6259;SDS011;3163;51.516;4.000;2023-04-28T04:19:53;6.80;;;4.43;;
6259;SDS011;3163;51.516;4.000;2023-04-28T04:22:19;3.40;;;2.93;;
6259;SDS011;3163;51.516;4.000;2023-04-28T04:24:44;4.33;;;3.80;;
6259;SDS011;3163;51.516;4.000;2023-04-28T04:27:10;4.97;;;3.80;;
6259;SDS011;3163;51.516;4.000;2023-04-28T04:29:36;7.87;;;4.63;;
6259;SDS011;3163;51.516;4.000;2023-04-28T04:32:02;11.70;;;6.87;;
6259;SDS011;3163;51.516;4.000;2023-04-28T04:34:27;3.40;;;3.10;;
6259;SDS011;3163;51.516;4.000;2023-04-28T04:36:53;7.43;;;4.23;;
6259;SDS011;3163;51.516;4.000;2023-04-28T04:39:19;8.30;;;5.63;;
6259;SDS011;3163;51.516;4.000;2023-04-28T04:41:44;5.20;;;3.47;;
6259;SDS011;3163;51.516;4.000;2023-04-28T04:44:10;9.40;;;4.53;;
6259;SDS011;3163;51.516;4.000;2023-04-28T04:46:35;4.30;;;3.80;;
6259;SDS011;3163;51.516;4.000;2023-04-28T04:49:01;8.43;;;6.00;;
6259;SDS011;3163;51.516;4.000;2023-04-28T04:51:27;9.37;;;3.97;;
6259;SDS011;3163;51.516;4.000;2023-04-28T04:53:52;8.07;;;5.00;;
6259;SDS011;3163;51.516;4.000;2023-04-28T04:56:19;6.37;;;3.73;;
6259;SDS011;3163;51.516;4.000;2023-04-28T04:58:44;3.33;;;2.43;;
6259;SDS011;3163;51.516;4.000;2023-04-28T05:01:10;4.03;;;3.27;;
6259;SDS011;3163;51.516;4.000;2023-04-28T05:03:36;2.90;;;2.53;;
6259;SDS011;3163;51.516;4.000;2023-04-28T05:06:01;7.47;;;5.13;;
6259;SDS011;3163;51.516;4.000;2023-04-28T05:08:28;2.10;;;2.00;;
6259;SDS011;3163;51.516;4.000;2023-04-28T05:10:53;2.67;;;2.00;;
6259;SDS011;3163;51.516;4.000;2023-04-28T05:13:19;11.80;;;8.25;;
6259;SDS011;3163;51.516;4.000;2023-04-28T05:15:45;10.93;;;7.80;;
6259;SDS011;3163;51.516;4.000;2023-04-28T05:18:10;11.40;;;5.33;;
6259;SDS011;3163;51.516;4.000;2023-04-28T05:20:37;16.58;;;9.60;;
6259;SDS011;3163;51.516;4.000;2023-04-28T05:23:03;13.20;;;6.33;;
6259;SDS011;3163;51.516;4.000;2023-04-28T05:25:29;11.03;;;6.23;;
6259;SDS011;3163;51.516;4.000;2023-04-28T05:27:55;2.83;;;2.63;;
6259;SDS011;3163;51.516;4.000;2023-04-28T05:30:21;6.87;;;3.93;;
6259;SDS011;3163;51.516;4.000;2023-04-28T05:32:46;4.53;;;3.33;;
6259;SDS011;3163;51.516;4.000;2023-04-28T05:35:12;3.33;;;2.10;;
6259;SDS011;3163;51.516;4.000;2023-04-28T05:37:39;9.17;;;6.80;;
6259;SDS011;3163;51.516;4.000;2023-04-28T05:40:07;4.47;;;3.23;;
6259;SDS011;3163;51.516;4.000;2023-04-28T05:42:33;3.47;;;3.00;;
6259;SDS011;3163;51.516;4.000;2023-04-28T05:44:59;2.40;;;2.20;;
6259;SDS011;3163;51.516;4.000;2023-04-28T05:47:24;7.57;;;5.97;;
6259;SDS011;3163;51.516;4.000;2023-04-28T05:49:50;2.93;;;2.63;;
6259;SDS011;3163;51.516;4.000;2023-04-28T05:52:16;2.57;;;2.07;;
6259;SDS011;3163;51.516;4.000;2023-04-28T05:54:41;9.27;;;4.60;;
6259;SDS011;3163;51.516;4.000;2023-04-28T05:57:07;6.63;;;5.10;;
6259;SDS011;3163;51.516;4.000;2023-04-28T05:59:32;3.33;;;2.43;;
6259;SDS011;3163;51.516;4.000;2023-04-28T06:01:58;4.70;;;3.57;;
6259;SDS011;3163;51.516;4.000;2023-04-28T06:04:23;4.70;;;2.73;;
6259;SDS011;3163;51.516;4.000;2023-04-28T06:06:49;6.67;;;5.70;;
6259;SDS011;3163;51.516;4.000;2023-04-28T06:09:15;3.00;;;2.67;;
6259;SDS011;3163;51.516;4.000;2023-04-28T06:11:41;4.07;;;2.80;;
6259;SDS011;3163;51.516;4.000;2023-04-28T06:14:07;3.03;;;2.50;;
6259;SDS011;3163;51.516;4.000;2023-04-28T06:16:32;7.53;;;4.60;;
6259;SDS011;3163;51.516;4.000;2023-04-28T06:18:58;3.80;;;2.97;;
6259;SDS011;3163;51.516;4.000;2023-04-28T06:21:23;12.37;;;8.30;;
6259;SDS011;3163;51.516;4.000;2023-04-28T06:23:50;3.37;;;2.80;;
6259;SDS011;3163;51.516;4.000;2023-04-28T06:26:16;5.80;;;4.27;;
6259;SDS011;3163;51.516;4.000;2023-04-28T06:28:42;3.73;;;2.67;;
6259;SDS011;3163;51.516;4.000;2023-04-28T06:31:07;3.27;;;2.50;;
6259;SDS011;3163;51.516;4.000;2023-04-28T06:33:33;3.47;;;2.70;;
6259;SDS011;3163;51.516;4.000;2023-04-28T06:35:59;2.97;;;2.67;;
6259;SDS011;3163;51.516;4.000;2023-04-28T06:38:24;3.63;;;2.80;;
6259;SDS011;3163;51.516;4.000;2023-04-28T06:40:50;11.17;;;6.53;;
6259;SDS011;3163;51.516;4.000;2023-04-28T06:43:16;3.57;;;3.23;;
6259;SDS011;3163;51.516;4.000;2023-04-28T06:45:42;8.53;;;3.87;;
6259;SDS011;3163;51.516;4.000;2023-04-28T06:48:08;4.90;;;3.30;;
6259;SDS011;3163;51.516;4.000;2023-04-28T06:50:35;3.00;;;2.70;;
6259;SDS011;3163;51.516;4.000;2023-04-28T06:53:01;3.07;;;2.47;;
6259;SDS011;3163;51.516;4.000;2023-04-28T06:55:26;7.40;;;5.40;;
6259;SDS011;3163;51.516;4.000;2023-04-28T06:57:52;2.97;;;2.47;;
6259;SDS011;3163;51.516;4.000;2023-04-28T07:00:18;4.77;;;3.00;;
6259;SDS011;3163;51.516;4.000;2023-04-28T07:02:43;4.50;;;2.90;;
6259;SDS011;3163;51.516;4.000;2023-04-28T07:05:09;3.23;;;2.90;;
6259;SDS011;3163;51.516;4.000;2023-04-28T07:07:35;3.03;;;2.83;;
6259;SDS011;3163;51.516;4.000;2023-04-28T07:10:02;2.90;;;2.63;;
6259;SDS011;3163;51.516;4.000;2023-04-28T07:12:29;4.23;;;3.83;;
6259;SDS011;3163;51.516;4.000;2023-04-28T07:14:54;4.70;;;3.43;;
6259;SDS011;3163;51.516;4.000;2023-04-28T07:17:20;6.23;;;5.03;;
6259;SDS011;3163;51.516;4.000;2023-04-28T07:19:45;4.10;;;3.70;;
6259;SDS011;3163;51.516;4.000;2023-04-28T07:22:11;5.40;;;3.23;;
6259;SDS011;3163;51.516;4.000;2023-04-28T07:24:37;5.60;;;4.73;;
6259;SDS011;3163;51.516;4.000;2023-04-28T07:27:03;4.00;;;3.60;;
6259;SDS011;3163;51.516;4.000;2023-04-28T07:29:29;4.03;;;3.50;;
6259;SDS011;3163;51.516;4.000;2023-04-28T07:31:58;5.63;;;4.50;;
6259;SDS011;3163;51.516;4.000;2023-04-28T07:34:25;4.30;;;3.90;;
6259;SDS011;3163;51.516;4.000;2023-04-28T07:36:51;4.37;;;3.90;;
6259;SDS011;3163;51.516;4.000;2023-04-28T07:39:17;3.70;;;3.07;;
6259;SDS011;3163;51.516;4.000;2023-04-28T07:41:42;5.53;;;4.60;;
6259;SDS011;3163;51.516;4.000;2023-04-28T07:44:08;5.67;;;3.37;;
6259;SDS011;3163;51.516;4.000;2023-04-28T07:46:34;5.40;;;4.07;;
6259;SDS011;3163;51.516;4.000;2023-04-28T07:49:00;4.30;;;3.90;;
6259;SDS011;3163;51.516;4.000;2023-04-28T07:51:26;5.53;;;3.63;;
6259;SDS011;3163;51.516;4.000;2023-04-28T07:53:52;5.93;;;3.30;;
6259;SDS011;3163;51.516;4.000;2023-04-28T07:56:18;7.80;;;4.37;;
6259;SDS011;3163;51.516;4.000;2023-04-28T07:58:43;4.00;;;3.20;;
6259;SDS011;3163;51.516;4.000;2023-04-28T08:01:09;5.43;;;3.63;;
6259;SDS011;3163;51.516;4.000;2023-04-28T08:03:36;4.43;;;4.00;;
6259;SDS011;3163;51.516;4.000;2023-04-28T08:06:01;3.83;;;3.13;;
6259;SDS011;3163;51.516;4.000;2023-04-28T08:08:27;4.67;;;3.77;;
6259;SDS011;3163;51.516;4.000;2023-04-28T08:10:53;5.03;;;2.83;;
6259;SDS011;3163;51.516;4.000;2023-04-28T08:13:19;4.67;;;3.63;;
6259;SDS011;3163;51.516;4.000;2023-04-28T08:15:46;4.60;;;3.47;;
6259;SDS011;3163;51.516;4.000;2023-04-28T08:18:12;3.43;;;2.80;;
6259;SDS011;3163;51.516;4.000;2023-04-28T08:20:37;3.23;;;2.60;;
6259;SDS011;3163;51.516;4.000;2023-04-28T08:23:03;3.60;;;3.20;;
6259;SDS011;3163;51.516;4.000;2023-04-28T08:25:28;5.40;;;3.00;;
6259;SDS011;3163;51.516;4.000;2023-04-28T08:27:55;3.23;;;2.93;;
6259;SDS011;3163;51.516;4.000;2023-04-28T08:30:21;3.00;;;2.57;;
6259;SDS011;3163;51.516;4.000;2023-04-28T08:32:46;2.70;;;1.97;;
6259;SDS011;3163;51.516;4.000;2023-04-28T08:35:12;5.63;;;2.53;;
6259;SDS011;3163;51.516;4.000;2023-04-28T08:37:39;2.93;;;2.40;;
6259;SDS011;3163;51.516;4.000;2023-04-28T08:40:06;2.60;;;2.03;;
6259;SDS011;3163;51.516;4.000;2023-04-28T08:42:36;2.43;;;1.90;;
6259;SDS011;3163;51.516;4.000;2023-04-28T08:45:02;3.10;;;1.90;;
6259;SDS011;3163;51.516;4.000;2023-04-28T08:47:37;2.43;;;1.70;;
6259;SDS011;3163;51.516;4.000;2023-04-28T08:50:11;1.73;;;1.63;;
6259;SDS011;3163;51.516;4.000;2023-04-28T08:52:38;2.13;;;1.90;;
6259;SDS011;3163;51.516;4.000;2023-04-28T08:55:06;4.20;;;1.60;;
6259;SDS011;3163;51.516;4.000;2023-04-28T08:57:37;2.53;;;2.03;;
6259;SDS011;3163;51.516;4.000;2023-04-28T09:00:08;3.13;;;1.80;;
6259;SDS011;3163;51.516;4.000;2023-04-28T09:02:34;4.63;;;1.70;;
6259;SDS011;3163;51.516;4.000;2023-04-28T09:05:02;1.87;;;1.77;;
6259;SDS011;3163;51.516;4.000;2023-04-28T09:07:30;1.60;;;1.40;;
6259;SDS011;3163;51.516;4.000;2023-04-28T09:12:44;2.47;;;1.63;;
6259;SDS011;3163;51.516;4.000;2023-04-28T09:15:09;1.90;;;1.80;;
6259;SDS011;3163;51.516;4.000;2023-04-28T09:17:48;1.77;;;1.67;;
6259;SDS011;3163;51.516;4.000;2023-04-28T09:20:27;2.17;;;1.60;;
6259;SDS011;3163;51.516;4.000;2023-04-28T09:22:54;2.37;;;1.80;;
6259;SDS011;3163;51.516;4.000;2023-04-28T09:25:21;1.27;;;1.03;;
6259;SDS011;3163;51.516;4.000;2023-04-28T09:27:50;3.23;;;1.33;;
6259;SDS011;3163;51.516;4.000;2023-04-28T09:30:16;1.63;;;1.53;;
6259;SDS011;3163;51.516;4.000;2023-04-28T09:32:42;2.08;;;1.73;;
6259;SDS011;3163;51.516;4.000;2023-04-28T09:35:08;1.77;;;1.27;;
6259;SDS011;3163;51.516;4.000;2023-04-28T09:37:34;1.33;;;0.87;;
6259;SDS011;3163;51.516;4.000;2023-04-28T09:40:05;2.27;;;1.40;;
6259;SDS011;3163;51.516;4.000;2023-04-28T09:47:38;2.30;;;1.70;;
6259;SDS011;3163;51.516;4.000;2023-04-28T09:50:08;1.73;;;1.40;;
6259;SDS011;3163;51.516;4.000;2023-04-28T09:52:38;1.20;;;1.20;;
6259;SDS011;3163;51.516;4.000;2023-04-28T09:55:09;1.33;;;1.23;;
6259;SDS011;3163;51.516;4.000;2023-04-28T09:57:36;1.77;;;1.50;;
6259;SDS011;3163;51.516;4.000;2023-04-28T10:00:03;2.93;;;1.50;;
6259;SDS011;3163;51.516;4.000;2023-04-28T10:02:30;2.03;;;1.30;;
6259;SDS011;3163;51.516;4.000;2023-04-28T10:04:58;2.63;;;1.37;;
6259;SDS011;3163;51.516;4.000;2023-04-28T10:07:24;1.30;;;1.30;;
6259;SDS011;3163;51.516;4.000;2023-04-28T10:09:51;1.90;;;1.70;;
6259;SDS011;3163;51.516;4.000;2023-04-28T10:12:18;1.50;;;1.40;;
6259;SDS011;3163;51.516;4.000;2023-04-28T10:14:45;3.03;;;1.50;;
6259;SDS011;3163;51.516;4.000;2023-04-28T10:17:13;1.53;;;1.43;;
6259;SDS011;3163;51.516;4.000;2023-04-28T10:19:42;2.00;;;1.47;;
6259;SDS011;3163;51.516;4.000;2023-04-28T10:22:35;1.67;;;1.57;;
6259;SDS011;3163;51.516;4.000;2023-04-28T10:27:41;1.60;;;1.50;;
6259;SDS011;3163;51.516;4.000;2023-04-28T10:30:15;2.03;;;1.47;;
6259;SDS011;3163;51.516;4.000;2023-04-28T10:32:42;1.80;;;1.60;;
6259;SDS011;3163;51.516;4.000;2023-04-28T10:40:42;1.60;;;1.50;;
6259;SDS011;3163;51.516;4.000;2023-04-28T10:43:12;2.50;;;1.77;;
6259;SDS011;3163;51.516;4.000;2023-04-28T10:45:57;3.60;;;1.80;;
6259;SDS011;3163;51.516;4.000;2023-04-28T10:56:08;1.73;;;1.60;;
6259;SDS011;3163;51.516;4.000;2023-04-28T10:58:37;4.60;;;1.80;;
6259;SDS011;3163;51.516;4.000;2023-04-28T11:06:27;2.93;;;1.43;;
6259;SDS011;3163;51.516;4.000;2023-04-28T11:16:50;2.77;;;1.20;;
6259;SDS011;3163;51.516;4.000;2023-04-28T11:19:23;1.33;;;1.20;;
6259;SDS011;3163;51.516;4.000;2023-04-28T11:21:54;1.77;;;1.33;;
6259;SDS011;3163;51.516;4.000;2023-04-28T11:24:21;0.83;;;0.83;;
6259;SDS011;3163;51.516;4.000;2023-04-28T11:26:49;1.17;;;1.07;;
6259;SDS011;3163;51.516;4.000;2023-04-28T11:29:16;3.97;;;0.90;;
6259;SDS011;3163;51.516;4.000;2023-04-28T11:31:49;1.30;;;1.00;;
6259;SDS011;3163;51.516;4.000;2023-04-28T11:34:17;1.30;;;0.90;;
6259;SDS011;3163;51.516;4.000;2023-04-28T11:36:45;0.70;;;0.70;;
6259;SDS011;3163;51.516;4.000;2023-04-28T11:39:11;0.80;;;0.80;;
6259;SDS011;3163;51.516;4.000;2023-04-28T11:41:38;0.90;;;0.57;;
6259;SDS011;3163;51.516;4.000;2023-04-28T11:46:44;1.17;;;0.87;;
6259;SDS011;3163;51.516;4.000;2023-04-28T11:49:28;1.23;;;0.80;;
6259;SDS011;3163;51.516;4.000;2023-04-28T11:51:57;2.83;;;0.77;;
6259;SDS011;3163;51.516;4.000;2023-04-28T11:54:29;0.80;;;0.80;;
6259;SDS011;3163;51.516;4.000;2023-04-28T11:56:56;0.70;;;0.57;;
6259;SDS011;3163;51.516;4.000;2023-04-28T11:59:24;5.85;;;0.90;;
6259;SDS011;3163;51.516;4.000;2023-04-28T12:01:52;0.60;;;0.60;;
6259;SDS011;3163;51.516;4.000;2023-04-28T12:07:15;0.67;;;0.50;;
6259;SDS011;3163;51.516;4.000;2023-04-28T12:12:13;0.80;;;0.80;;
6259;SDS011;3163;51.516;4.000;2023-04-28T12:14:53;1.13;;;0.90;;
6259;SDS011;3163;51.516;4.000;2023-04-28T12:17:26;1.00;;;0.97;;
6259;SDS011;3163;51.516;4.000;2023-04-28T12:19:52;2.23;;;0.77;;
6259;SDS011;3163;51.516;4.000;2023-04-28T12:22:19;1.43;;;0.70;;
6259;SDS011;3163;51.516;4.000;2023-04-28T12:24:45;2.03;;;0.70;;
6259;SDS011;3163;51.516;4.000;2023-04-28T12:27:18;1.10;;;0.90;;
6259;SDS011;3163;51.516;4.000;2023-04-28T12:29:45;0.57;;;0.57;;
6259;SDS011;3163;51.516;4.000;2023-04-28T12:32:12;1.13;;;0.60;;
6259;SDS011;3163;51.516;4.000;2023-04-28T12:34:39;0.93;;;0.70;;
6259;SDS011;3163;51.516;4.000;2023-04-28T12:37:06;2.20;;;0.80;;
6259;SDS011;3163;51.516;4.000;2023-04-28T12:39:34;2.70;;;0.70;;
6259;SDS011;3163;51.516;4.000;2023-04-28T12:42:01;4.67;;;1.77;;
6259;SDS011;3163;51.516;4.000;2023-04-28T12:44:31;8.52;;;3.28;;
6259;SDS011;3163;51.516;4.000;2023-04-28T12:47:00;8.80;;;3.47;;
6259;SDS011;3163;51.516;4.000;2023-04-28T12:49:26;13.07;;;4.83;;
6259;SDS011;3163;51.516;4.000;2023-04-28T12:51:52;7.63;;;2.80;;
6259;SDS011;3163;51.516;4.000;2023-04-28T12:54:18;3.30;;;1.03;;
6259;SDS011;3163;51.516;4.000;2023-04-28T12:56:43;5.53;;;2.10;;
6259;SDS011;3163;51.516;4.000;2023-04-28T12:59:09;5.07;;;1.63;;
6259;SDS011;3163;51.516;4.000;2023-04-28T13:01:35;7.27;;;1.63;;
6259;SDS011;3163;51.516;4.000;2023-04-28T13:04:01;4.13;;;1.73;;
6259;SDS011;3163;51.516;4.000;2023-04-28T13:06:27;3.20;;;1.30;;
6259;SDS011;3163;51.516;4.000;2023-04-28T13:08:52;4.53;;;1.50;;
6259;SDS011;3163;51.516;4.000;2023-04-28T13:11:18;5.57;;;2.00;;
6259;SDS011;3163;51.516;4.000;2023-04-28T13:13:44;4.10;;;1.83;;
6259;SDS011;3163;51.516;4.000;2023-04-28T13:16:10;3.60;;;1.40;;
6259;SDS011;3163;51.516;4.000;2023-04-28T13:18:36;4.63;;;1.10;;
6259;SDS011;3163;51.516;4.000;2023-04-28T13:21:01;3.63;;;1.87;;
6259;SDS011;3163;51.516;4.000;2023-04-28T13:23:29;6.27;;;1.27;;
6259;SDS011;3163;51.516;4.000;2023-04-28T13:25:55;3.07;;;1.10;;
6259;SDS011;3163;51.516;4.000;2023-04-28T13:28:20;3.40;;;1.33;;
6259;SDS011;3163;51.516;4.000;2023-04-28T13:30:46;3.07;;;1.20;;
6259;SDS011;3163;51.516;4.000;2023-04-28T13:33:11;1.97;;;1.10;;
6259;SDS011;3163;51.516;4.000;2023-04-28T13:35:37;4.33;;;1.00;;
6259;SDS011;3163;51.516;4.000;2023-04-28T13:38:02;3.03;;;1.10;;
6259;SDS011;3163;51.516;4.000;2023-04-28T13:40:28;4.37;;;1.13;;
6259;SDS011;3163;51.516;4.000;2023-04-28T13:42:55;3.00;;;1.03;;
6259;SDS011;3163;51.516;4.000;2023-04-28T13:45:20;4.03;;;1.20;;
6259;SDS011;3163;51.516;4.000;2023-04-28T13:47:46;2.80;;;1.40;;
6259;SDS011;3163;51.516;4.000;2023-04-28T13:50:12;3.97;;;1.60;;
6259;SDS011;3163;51.516;4.000;2023-04-28T13:52:38;3.43;;;1.47;;
6259;SDS011;3163;51.516;4.000;2023-04-28T13:55:04;3.03;;;1.17;;
6259;SDS011;3163;51.516;4.000;2023-04-28T13:57:30;2.00;;;1.33;;
6259;SDS011;3163;51.516;4.000;2023-04-28T13:59:56;2.10;;;1.10;;
6259;SDS011;3163;51.516;4.000;2023-04-28T14:02:21;1.63;;;1.00;;
6259;SDS011;3163;51.516;4.000;2023-04-28T14:04:47;3.00;;;0.83;;
6259;SDS011;3163;51.516;4.000;2023-04-28T14:07:14;1.20;;;0.90;;
6259;SDS011;3163;51.516;4.000;2023-04-28T14:09:40;2.83;;;0.90;;
6259;SDS011;3163;51.516;4.000;2023-04-28T14:12:06;4.07;;;1.07;;
6259;SDS011;3163;51.516;4.000;2023-04-28T14:14:32;0.50;;;0.50;;
6259;SDS011;3163;51.516;4.000;2023-04-28T14:16:58;2.37;;;0.90;;
6259;SDS011;3163;51.516;4.000;2023-04-28T14:19:24;1.43;;;1.00;;
6259;SDS011;3163;51.516;4.000;2023-04-28T14:21:51;1.37;;;0.83;;
6259;SDS011;3163;51.516;4.000;2023-04-28T14:24:17;3.00;;;1.10;;
6259;SDS011;3163;51.516;4.000;2023-04-28T14:26:44;2.13;;;1.03;;
6259;SDS011;3163;51.516;4.000;2023-04-28T14:29:10;1.43;;;1.10;;
6259;SDS011;3163;51.516;4.000;2023-04-28T14:31:35;2.20;;;1.07;;
6259;SDS011;3163;51.516;4.000;2023-04-28T14:34:02;0.80;;;0.63;;
6259;SDS011;3163;51.516;4.000;2023-04-28T14:36:28;1.10;;;0.67;;
6259;SDS011;3163;51.516;4.000;2023-04-28T14:38:57;1.83;;;0.97;;
6259;SDS011;3163;51.516;4.000;2023-04-28T14:41:23;0.83;;;0.80;;
6259;SDS011;3163;51.516;4.000;2023-04-28T14:43:49;2.20;;;0.43;;
6259;SDS011;3163;51.516;4.000;2023-04-28T14:46:15;1.33;;;0.77;;
6259;SDS011;3163;51.516;4.000;2023-04-28T14:48:46;1.83;;;0.83;;
6259;SDS011;3163;51.516;4.000;2023-04-28T14:51:13;1.13;;;0.77;;
6259;SDS011;3163;51.516;4.000;2023-04-28T14:53:38;1.43;;;1.00;;
6259;SDS011;3163;51.516;4.000;2023-04-28T14:56:04;1.40;;;0.70;;
6259;SDS011;3163;51.516;4.000;2023-04-28T14:58:31;1.37;;;0.60;;
6259;SDS011;3163;51.516;4.000;2023-04-28T15:00:56;0.90;;;0.67;;
6259;SDS011;3163;51.516;4.000;2023-04-28T15:03:22;2.80;;;0.80;;
6259;SDS011;3163;51.516;4.000;2023-04-28T15:05:47;0.57;;;0.57;;
6259;SDS011;3163;51.516;4.000;2023-04-28T15:08:13;0.50;;;0.50;;
6259;SDS011;3163;51.516;4.000;2023-04-28T15:10:38;1.20;;;0.93;;
6259;SDS011;3163;51.516;4.000;2023-04-28T15:13:07;0.80;;;0.60;;
6259;SDS011;3163;51.516;4.000;2023-04-28T15:15:33;0.63;;;0.63;;
6259;SDS011;3163;51.516;4.000;2023-04-28T15:17:59;0.73;;;0.50;;
6259;SDS011;3163;51.516;4.000;2023-04-28T15:20:28;0.67;;;0.60;;
6259;SDS011;3163;51.516;4.000;2023-04-28T15:22:55;0.40;;;0.40;;
6259;SDS011;3163;51.516;4.000;2023-04-28T15:25:21;3.40;;;0.80;;
6259;SDS011;3163;51.516;4.000;2023-04-28T15:27:47;1.13;;;0.47;;
6259;SDS011;3163;51.516;4.000;2023-04-28T15:30:14;0.63;;;0.60;;
6259;SDS011;3163;51.516;4.000;2023-04-28T15:32:40;1.33;;;0.70;;
6259;SDS011;3163;51.516;4.000;2023-04-28T15:35:07;0.97;;;0.70;;
6259;SDS011;3163;51.516;4.000;2023-04-28T15:40:01;1.13;;;0.50;;
6259;SDS011;3163;51.516;4.000;2023-04-28T15:42:28;0.80;;;0.80;;
6259;SDS011;3163;51.516;4.000;2023-04-28T15:44:55;2.10;;;1.23;;
6259;SDS011;3163;51.516;4.000;2023-04-28T15:47:20;0.43;;;0.43;;
6259;SDS011;3163;51.516;4.000;2023-04-28T15:49:46;2.63;;;0.63;;
6259;SDS011;3163;51.516;4.000;2023-04-28T15:52:14;0.50;;;0.50;;
6259;SDS011;3163;51.516;4.000;2023-04-28T15:54:40;0.50;;;0.50;;
6259;SDS011;3163;51.516;4.000;2023-04-28T15:57:06;1.98;;;0.90;;
6259;SDS011;3163;51.516;4.000;2023-04-28T15:59:32;1.47;;;0.80;;